createdAt,value
2019-01-20T00:00:53.607Z,19.20
2019-01-20T00:03:23.192Z,18.97
2019-01-20T00:05:52.517Z,18.73
2019-01-20T00:08:21.926Z,19.30
2019-01-20T00:10:51.306Z,18.57
2019-01-20T00:13:20.959Z,17.67
2019-01-20T00:15:50.492Z,18.77
2019-01-20T00:18:19.821Z,18.07
2019-01-20T00:20:49.179Z,18.98
2019-01-20T00:23:18.676Z,19.10
2019-01-20T00:25:47.974Z,19.15
2019-01-20T00:28:17.611Z,18.50
2019-01-20T00:30:46.967Z,18.52
2019-01-20T00:33:20.475Z,17.75
2019-01-20T00:35:49.876Z,18.55
2019-01-20T00:38:19.496Z,17.57
2019-01-20T00:40:48.882Z,18.10
2019-01-20T00:43:18.230Z,18.15
2019-01-20T00:45:47.849Z,16.85
2019-01-20T00:48:17.224Z,17.02
2019-01-20T00:50:46.861Z,17.20
2019-01-20T00:53:16.254Z,17.32
2019-01-20T00:55:45.852Z,16.17
2019-01-20T00:58:15.256Z,16.85
2019-01-20T01:00:44.892Z,17.82
2019-01-20T01:03:14.199Z,18.00
2019-01-20T01:05:43.850Z,18.55
2019-01-20T01:08:13.441Z,18.07
2019-01-20T01:10:42.786Z,18.45
2019-01-20T01:13:12.393Z,19.07
2019-01-20T01:15:41.976Z,18.23
2019-01-20T01:18:11.578Z,18.47
2019-01-20T01:20:41.176Z,18.87
2019-01-20T01:23:10.788Z,18.27
2019-01-20T01:25:40.404Z,18.85
2019-01-20T01:28:09.782Z,17.55
2019-01-20T01:30:39.407Z,18.35
2019-01-20T01:33:09.065Z,18.73
2019-01-20T01:35:38.398Z,17.90
2019-01-20T01:38:08.046Z,17.73
2019-01-20T01:40:37.511Z,17.82
2019-01-20T01:43:07.143Z,17.80
2019-01-20T01:45:36.735Z,18.90
2019-01-20T01:48:06.343Z,17.97
2019-01-20T01:50:36.022Z,18.57
2019-01-20T01:53:06.273Z,19.40
2019-01-20T01:55:36.226Z,20.02
2019-01-20T01:58:07.562Z,19.73
2019-01-20T02:00:36.894Z,19.07
2019-01-20T02:03:06.250Z,19.27
2019-01-20T02:05:35.857Z,18.62
2019-01-20T02:08:05.292Z,19.87
2019-01-20T02:10:34.643Z,19.98
2019-01-20T02:13:04.854Z,20.63
2019-01-20T02:15:34.174Z,19.85
2019-01-20T02:18:03.745Z,19.67
2019-01-20T02:20:35.067Z,19.57
2019-01-20T02:23:05.761Z,19.73
2019-01-20T02:25:35.465Z,19.20
2019-01-20T02:28:04.826Z,19.40
2019-01-20T02:30:34.169Z,19.60
2019-01-20T02:33:06.456Z,20.52
2019-01-20T02:35:38.879Z,18.82
2019-01-20T02:38:08.231Z,19.50
2019-01-20T02:40:42.574Z,19.62
2019-01-20T02:43:13.982Z,19.40
2019-01-20T02:45:43.070Z,19.98
2019-01-20T02:48:12.418Z,19.27
2019-01-20T02:50:42.746Z,20.50
2019-01-20T02:53:12.069Z,20.08
2019-01-20T02:55:41.481Z,19.90
2019-01-20T02:58:10.846Z,19.87
2019-01-20T03:00:42.157Z,20.25
2019-01-20T03:03:11.763Z,19.95
2019-01-20T03:05:41.135Z,20.70
2019-01-20T03:08:10.982Z,20.32
2019-01-20T03:10:40.284Z,19.87
2019-01-20T03:13:14.237Z,20.12
2019-01-20T03:15:46.864Z,21.05
2019-01-20T03:18:16.474Z,20.25
2019-01-20T03:20:47.615Z,19.90
2019-01-20T03:23:17.535Z,18.95
2019-01-20T03:25:49.922Z,19.77
2019-01-20T03:28:19.260Z,19.70
2019-01-20T03:30:48.588Z,19.27
2019-01-20T03:33:18.358Z,19.80
2019-01-20T03:35:47.688Z,19.82
2019-01-20T03:38:17.320Z,20.65
2019-01-20T03:40:46.932Z,20.60
2019-01-20T03:43:16.537Z,20.10
2019-01-20T03:45:50.762Z,20.05
2019-01-20T03:48:20.376Z,20.60
2019-01-20T03:50:50.806Z,19.82
2019-01-20T03:53:20.707Z,19.95
2019-01-20T03:55:50.123Z,20.37
2019-01-20T03:58:20.331Z,20.65
2019-01-20T04:00:52.932Z,20.97
2019-01-20T04:03:22.627Z,20.97
2019-01-20T04:05:52.908Z,20.62
2019-01-20T04:08:24.103Z,20.30
2019-01-20T04:10:54.792Z,19.73
2019-01-20T04:13:24.320Z,20.77
2019-01-20T04:15:54.525Z,21.12
2019-01-20T04:18:26.325Z,20.40
2019-01-20T04:20:56.543Z,21.30
2019-01-20T04:23:27.484Z,20.68
2019-01-20T04:25:56.818Z,20.97
2019-01-20T04:28:26.451Z,21.33
2019-01-20T04:30:59.117Z,20.32
2019-01-20T04:33:33.358Z,20.95
2019-01-20T04:36:04.420Z,21.60
2019-01-20T04:38:37.898Z,21.60
2019-01-20T04:41:07.238Z,21.05
2019-01-20T04:43:39.859Z,20.62
2019-01-20T04:46:09.199Z,20.25
2019-01-20T04:48:39.748Z,20.77
2019-01-20T04:51:11.575Z,20.15
2019-01-20T04:53:47.545Z,21.12
2019-01-20T04:56:20.830Z,21.20
2019-01-20T04:58:57.187Z,21.68
2019-01-20T05:01:26.550Z,20.48
2019-01-20T05:03:56.193Z,21.33
2019-01-20T05:06:26.494Z,21.07
2019-01-20T05:08:57.343Z,21.40
2019-01-20T05:11:28.155Z,21.23
2019-01-20T05:13:57.486Z,20.82
2019-01-20T05:16:28.772Z,21.77
2019-01-20T05:18:58.211Z,21.12
2019-01-20T05:21:33.470Z,21.48
2019-01-20T05:24:05.630Z,20.20
2019-01-20T05:26:34.950Z,21.30
2019-01-20T05:29:04.565Z,21.42
2019-01-20T05:31:33.890Z,21.10
2019-01-20T05:34:03.233Z,22.02
2019-01-20T05:36:32.626Z,21.48
2019-01-20T05:39:02.207Z,20.72
2019-01-20T05:41:31.550Z,22.02
2019-01-20T05:44:01.213Z,21.90
2019-01-20T05:46:32.330Z,23.07
2019-01-20T05:49:08.262Z,21.68
2019-01-20T05:51:41.352Z,21.17
2019-01-20T05:54:10.697Z,20.88
2019-01-20T05:56:40.415Z,22.40
2019-01-20T05:59:10.887Z,21.80
2019-01-20T06:01:41.978Z,22.50
2019-01-20T06:04:13.607Z,22.45
2019-01-20T06:06:44.776Z,22.13
2019-01-20T06:09:14.485Z,22.48
2019-01-20T06:11:43.834Z,22.67
2019-01-20T06:14:17.783Z,22.73
2019-01-20T06:16:47.507Z,22.17
2019-01-20T06:19:17.219Z,22.30
2019-01-20T06:21:46.537Z,22.80
2019-01-20T06:24:16.230Z,22.10
2019-01-20T06:26:46.025Z,23.05
2019-01-20T06:29:18.978Z,23.85
2019-01-20T06:31:50.484Z,22.10
2019-01-20T06:34:20.798Z,22.17
2019-01-20T06:36:55.523Z,22.22
2019-01-20T06:39:24.878Z,22.05
2019-01-20T06:41:54.358Z,22.50
2019-01-20T06:44:26.523Z,22.37
2019-01-20T06:46:57.104Z,22.52
2019-01-20T06:49:26.521Z,21.55
2019-01-20T06:51:58.444Z,22.55
2019-01-20T06:54:27.764Z,22.73
2019-01-20T06:56:59.661Z,23.05
2019-01-20T06:59:29.759Z,23.42
2019-01-20T07:01:59.168Z,22.37
2019-01-20T07:04:29.397Z,24.00
2019-01-20T07:07:00.721Z,23.00
2019-01-20T07:09:30.507Z,22.20
2019-01-20T07:11:59.876Z,21.85
2019-01-20T07:14:31.737Z,22.25
2019-01-20T07:17:01.418Z,22.10
2019-01-20T07:19:31.029Z,23.07
2019-01-20T07:22:00.661Z,23.18
2019-01-20T07:24:30.346Z,22.82
2019-01-20T07:27:00.109Z,21.73
2019-01-20T07:29:36.062Z,22.50
2019-01-20T07:32:05.401Z,22.00
2019-01-20T07:34:35.036Z,23.00
2019-01-20T07:37:04.372Z,21.68
2019-01-20T07:39:34.052Z,22.60
2019-01-20T07:42:06.647Z,22.40
2019-01-20T07:44:36.067Z,22.35
2019-01-20T07:47:06.439Z,22.22
2019-01-20T07:49:36.070Z,38.78
2019-01-20T07:52:06.997Z,51.95
2019-01-20T07:54:37.731Z,31.17
2019-01-20T07:57:07.344Z,50.88
2019-01-20T07:59:42.654Z,24.57
2019-01-20T08:02:12.019Z,22.70
2019-01-20T08:04:45.085Z,22.65
2019-01-20T08:07:17.972Z,22.73
2019-01-20T08:09:47.395Z,22.55
2019-01-20T08:12:23.443Z,23.83
2019-01-20T08:14:50.765Z,22.98
2019-01-20T08:17:20.093Z,23.00
2019-01-20T08:19:50.917Z,23.30
2019-01-20T08:22:20.254Z,23.85
2019-01-20T08:24:49.747Z,24.40
2019-01-20T08:27:19.093Z,23.62
2019-01-20T08:29:49.491Z,23.98
2019-01-20T08:32:19.794Z,44.08
2019-01-20T08:34:49.472Z,103.15
2019-01-20T08:37:19.187Z,33.65
2019-01-20T08:39:48.555Z,23.60
2019-01-20T08:42:17.900Z,25.05
2019-01-20T08:44:48.948Z,23.35
2019-01-20T08:47:20.057Z,23.52
2019-01-20T08:49:49.677Z,22.82
2019-01-20T08:52:19.384Z,24.12
2019-01-20T08:54:48.991Z,24.15
2019-01-20T08:57:18.340Z,23.87
2019-01-20T08:59:53.124Z,24.80
2019-01-20T09:02:22.465Z,25.27
2019-01-20T09:04:52.147Z,24.90
2019-01-20T09:07:21.950Z,24.40
2019-01-20T09:09:51.320Z,24.95
2019-01-20T09:12:20.952Z,25.43
2019-01-20T09:14:50.671Z,25.12
2019-01-20T09:17:20.367Z,24.60
2019-01-20T09:19:49.779Z,24.98
2019-01-20T09:22:19.486Z,24.87
2019-01-20T09:24:48.985Z,24.75
2019-01-20T09:27:18.594Z,25.80
2019-01-20T09:29:48.303Z,25.90
2019-01-20T09:32:17.932Z,25.52
2019-01-20T09:34:47.665Z,25.97
2019-01-20T09:37:17.238Z,24.07
2019-01-20T09:39:46.841Z,24.73
2019-01-20T09:42:16.464Z,25.23
2019-01-20T09:44:50.197Z,24.03
2019-01-20T09:47:19.850Z,23.87
2019-01-20T09:49:49.449Z,25.43
2019-01-20T09:52:19.079Z,25.00
2019-01-20T09:54:48.697Z,24.93
2019-01-20T09:57:18.037Z,24.63
2019-01-20T09:59:47.640Z,26.87
2019-01-20T10:02:17.258Z,23.80
2019-01-20T10:04:46.633Z,25.43
2019-01-20T10:07:16.258Z,23.70
2019-01-20T10:09:45.580Z,24.43
2019-01-20T10:12:15.241Z,25.37
2019-01-20T10:14:44.817Z,25.83
2019-01-20T10:17:14.446Z,24.47
2019-01-20T10:19:43.780Z,24.70
2019-01-20T10:22:13.762Z,25.07
2019-01-20T10:24:44.825Z,24.70
2019-01-20T10:27:14.204Z,25.40
2019-01-20T10:29:43.799Z,24.77
2019-01-20T10:32:13.398Z,24.43
2019-01-20T10:34:43.247Z,24.67
2019-01-20T10:37:12.643Z,24.97
2019-01-20T10:39:42.311Z,24.87
2019-01-20T10:42:11.921Z,33.80
2019-01-20T10:44:41.305Z,55.73
2019-01-20T10:47:10.902Z,27.07
2019-01-20T10:49:40.551Z,24.33
2019-01-20T10:52:11.203Z,25.00
2019-01-20T10:54:40.529Z,23.60
2019-01-20T10:57:09.877Z,23.23
2019-01-20T10:59:39.280Z,23.00
2019-01-20T11:02:08.603Z,22.97
2019-01-20T11:04:38.197Z,23.10
2019-01-20T11:07:07.544Z,22.67
2019-01-20T11:09:37.104Z,23.33
2019-01-20T11:12:06.680Z,22.70
2019-01-20T11:14:36.011Z,24.33
2019-01-20T11:17:05.312Z,24.67
2019-01-20T11:19:34.803Z,23.60
2019-01-20T11:22:04.114Z,25.03
2019-01-20T11:24:36.570Z,21.80
2019-01-20T11:27:05.935Z,23.07
2019-01-20T11:29:39.382Z,22.40
2019-01-20T11:32:09.037Z,23.23
2019-01-20T11:34:39.953Z,23.70
2019-01-20T11:37:09.520Z,22.23
2019-01-20T11:39:38.835Z,23.13
2019-01-20T11:42:08.181Z,23.70
2019-01-20T11:44:37.607Z,23.17
2019-01-20T11:47:06.941Z,22.63
2019-01-20T11:49:36.526Z,22.40
2019-01-20T11:52:06.069Z,23.13
2019-01-20T11:54:35.633Z,23.13
2019-01-20T11:57:05.229Z,23.67
2019-01-20T11:59:34.572Z,22.27
2019-01-20T12:02:04.001Z,21.63
2019-01-20T12:04:33.722Z,22.07
2019-01-20T12:07:03.072Z,22.83
2019-01-20T12:09:32.680Z,22.50
2019-01-20T12:12:02.018Z,23.40
2019-01-20T12:14:31.616Z,23.10
2019-01-20T12:17:01.225Z,21.10
2019-01-20T12:19:30.588Z,20.73
2019-01-20T12:22:00.172Z,19.63
2019-01-20T12:24:29.762Z,20.17
2019-01-20T12:26:59.405Z,20.83
2019-01-20T12:29:28.995Z,20.43
2019-01-20T12:31:58.556Z,18.30
2019-01-20T12:34:28.137Z,18.90
2019-01-20T12:36:57.728Z,19.27
2019-01-20T12:39:27.312Z,15.30
2019-01-20T12:41:56.893Z,16.77
2019-01-20T12:44:31.493Z,18.07
2019-01-20T12:47:06.119Z,17.30
2019-01-20T12:49:41.237Z,14.87
2019-01-20T12:52:11.940Z,17.00
2019-01-20T12:54:41.278Z,16.53
2019-01-20T12:57:10.600Z,14.40
2019-01-20T12:59:40.269Z,13.20
2019-01-20T13:02:09.966Z,14.23
2019-01-20T13:04:39.573Z,13.50
2019-01-20T13:07:09.182Z,12.87
2019-01-20T13:09:38.766Z,13.17
2019-01-20T13:12:08.321Z,14.70
2019-01-20T13:14:39.112Z,15.40
2019-01-20T13:17:08.614Z,14.73
2019-01-20T13:19:38.194Z,14.40
2019-01-20T13:22:07.772Z,14.87
2019-01-20T13:24:37.341Z,15.30
2019-01-20T13:27:06.932Z,15.20
2019-01-20T13:29:37.138Z,15.63
2019-01-20T13:32:09.164Z,16.27
2019-01-20T13:34:38.571Z,16.10
2019-01-20T13:37:08.145Z,15.70
2019-01-20T13:39:37.736Z,15.63
2019-01-20T13:42:07.068Z,16.97
2019-01-20T13:44:36.401Z,16.77
2019-01-20T13:47:06.088Z,16.50
2019-01-20T13:49:35.680Z,17.40
2019-01-20T13:52:05.603Z,16.10
2019-01-20T13:54:35.191Z,15.73
2019-01-20T13:57:04.540Z,16.87
2019-01-20T13:59:33.877Z,15.83
2019-01-20T14:02:03.490Z,15.57
2019-01-20T14:04:32.832Z,15.43
2019-01-20T14:07:02.161Z,13.63
2019-01-20T14:09:39.259Z,11.70
2019-01-20T14:12:08.806Z,13.20
2019-01-20T14:14:38.393Z,13.60
2019-01-20T14:17:08.016Z,12.73
2019-01-20T14:19:37.628Z,12.20
2019-01-20T14:22:13.123Z,12.73
2019-01-20T14:24:42.931Z,13.17
2019-01-20T14:27:12.545Z,12.97
2019-01-20T14:29:42.723Z,12.80
2019-01-20T14:32:15.252Z,12.87
2019-01-20T14:34:44.793Z,12.33
2019-01-20T14:37:16.028Z,13.37
2019-01-20T14:39:45.944Z,12.60
2019-01-20T14:42:16.333Z,12.33
2019-01-20T14:44:47.525Z,12.07
2019-01-20T14:47:17.292Z,12.10
2019-01-20T14:49:46.889Z,11.60
2019-01-20T14:52:16.203Z,12.60
2019-01-20T14:54:45.556Z,12.47
2019-01-20T14:57:14.889Z,12.50
2019-01-20T14:59:44.522Z,12.00
2019-01-20T15:02:17.430Z,13.20
2019-01-20T15:04:48.025Z,13.93
2019-01-20T15:07:18.040Z,13.23
2019-01-20T15:09:50.082Z,13.87
2019-01-20T15:12:20.510Z,13.67
2019-01-20T15:14:51.056Z,14.70
2019-01-20T15:17:21.668Z,13.83
2019-01-20T15:19:51.079Z,13.80
2019-01-20T15:22:20.703Z,13.43
2019-01-20T15:24:50.061Z,13.77
2019-01-20T15:27:21.230Z,14.50
2019-01-20T15:29:50.840Z,14.70
2019-01-20T15:32:20.615Z,14.50
2019-01-20T15:34:51.953Z,14.23
2019-01-20T15:37:23.264Z,14.33
2019-01-20T15:39:52.586Z,16.43
2019-01-20T15:42:21.964Z,16.20
2019-01-20T15:44:51.326Z,15.70
2019-01-20T15:47:22.508Z,16.03
2019-01-20T15:49:52.938Z,16.63
2019-01-20T15:52:22.506Z,15.53
2019-01-20T15:54:52.930Z,15.47
2019-01-20T15:57:22.607Z,15.50
2019-01-20T15:59:52.489Z,16.63
2019-01-20T16:02:22.153Z,17.07
2019-01-20T16:04:52.789Z,16.37
2019-01-20T16:07:22.339Z,16.93
2019-01-20T16:09:54.354Z,15.80
2019-01-20T16:12:23.760Z,15.17
2019-01-20T16:14:53.371Z,15.70
2019-01-20T16:17:22.785Z,14.80
2019-01-20T16:19:52.668Z,15.43
2019-01-20T16:22:22.005Z,14.67
2019-01-20T16:24:51.355Z,15.50
2019-01-20T16:27:20.750Z,15.93
2019-01-20T16:29:50.116Z,16.37
2019-01-20T16:32:19.748Z,16.07
2019-01-20T16:34:49.384Z,15.73
2019-01-20T16:37:18.977Z,16.60
2019-01-20T16:39:49.049Z,16.07
2019-01-20T16:42:18.668Z,15.77
2019-01-20T16:44:48.284Z,15.73
2019-01-20T16:47:17.684Z,16.43
2019-01-20T16:49:47.017Z,15.80
2019-01-20T16:52:16.697Z,15.63
2019-01-20T16:54:46.032Z,16.13
2019-01-20T16:57:15.973Z,16.23
2019-01-20T16:59:45.634Z,17.27
2019-01-20T17:02:17.385Z,16.37
2019-01-20T17:04:46.724Z,16.23
2019-01-20T17:07:16.735Z,16.83
2019-01-20T17:09:47.319Z,17.10
2019-01-20T17:12:16.998Z,17.67
2019-01-20T17:14:46.850Z,17.73
2019-01-20T17:17:16.599Z,18.43
2019-01-20T17:19:46.033Z,17.87
2019-01-20T17:22:15.650Z,17.87
2019-01-20T17:24:45.508Z,17.33
2019-01-20T17:27:14.950Z,17.43
2019-01-20T17:29:44.689Z,17.93
2019-01-20T17:32:14.370Z,17.53
2019-01-20T17:34:43.736Z,17.80
2019-01-20T17:37:14.054Z,18.27
2019-01-20T17:39:43.753Z,17.33
2019-01-20T17:42:13.340Z,16.90
2019-01-20T17:44:42.942Z,17.47
2019-01-20T17:47:12.626Z,16.33
2019-01-20T17:49:42.308Z,17.37
2019-01-20T17:52:12.027Z,17.07
2019-01-20T17:54:43.317Z,18.03
2019-01-20T17:57:12.779Z,17.23
2019-01-20T17:59:42.515Z,17.13
2019-01-20T18:02:12.118Z,17.37
2019-01-20T18:04:41.834Z,18.60
2019-01-20T18:07:11.436Z,18.70
2019-01-20T18:09:41.205Z,17.43
2019-01-20T18:12:11.121Z,20.23
2019-01-20T18:14:40.776Z,18.17
2019-01-20T18:17:10.205Z,17.37
2019-01-20T18:19:39.520Z,18.97
2019-01-20T18:22:08.884Z,18.10
2019-01-20T18:24:38.681Z,18.20
2019-01-20T18:27:09.182Z,17.97
2019-01-20T18:29:39.601Z,18.50
2019-01-20T18:32:09.189Z,18.30
2019-01-20T18:34:38.555Z,18.03
2019-01-20T18:37:11.895Z,19.40
2019-01-20T18:39:41.708Z,17.40
2019-01-20T18:42:11.329Z,19.50
2019-01-20T18:44:40.909Z,19.60
2019-01-20T18:47:10.937Z,19.93
2019-01-20T18:49:40.531Z,19.77
2019-01-20T18:52:10.136Z,21.13
2019-01-20T18:54:39.469Z,20.23
2019-01-20T18:57:08.811Z,21.17
2019-01-20T18:59:39.399Z,20.83
2019-01-20T19:02:09.868Z,27.40
2019-01-20T19:04:39.564Z,27.00
2019-01-20T19:07:09.230Z,101.10
2019-01-20T19:09:39.094Z,24.93
2019-01-20T19:12:08.576Z,23.00
2019-01-20T19:14:38.243Z,23.73
2019-01-20T19:17:09.095Z,23.27
2019-01-20T19:19:38.716Z,22.17
2019-01-20T19:22:08.409Z,22.67
2019-01-20T19:24:38.314Z,22.60
2019-01-20T19:27:07.999Z,23.40
2019-01-20T19:29:38.049Z,22.77
2019-01-20T19:32:07.814Z,22.87
2019-01-20T19:34:37.460Z,22.95
2019-01-20T19:37:07.317Z,23.07
2019-01-20T19:39:36.983Z,23.18
2019-01-20T19:42:06.835Z,24.87
2019-01-20T19:44:36.335Z,26.48
2019-01-20T19:47:06.445Z,26.77
2019-01-20T19:49:36.436Z,30.13
2019-01-20T19:52:06.635Z,28.83
2019-01-20T19:54:36.219Z,30.33
2019-01-20T19:57:05.818Z,30.97
2019-01-20T19:59:35.464Z,34.00
2019-01-20T20:02:05.160Z,30.90
2019-01-20T20:04:36.580Z,31.60
2019-01-20T20:07:06.058Z,31.67
2019-01-20T20:09:35.489Z,31.90
2019-01-20T20:12:05.366Z,30.15
2019-01-20T20:14:34.789Z,28.25
2019-01-20T20:17:04.433Z,29.70
2019-01-20T20:19:34.454Z,31.37
2019-01-20T20:22:04.222Z,29.72
2019-01-20T20:24:34.036Z,32.53
2019-01-20T20:27:03.501Z,32.15
2019-01-20T20:29:33.006Z,32.98
2019-01-20T20:32:02.625Z,33.30
2019-01-20T20:34:40.544Z,34.03
2019-01-20T20:37:10.574Z,33.85
2019-01-20T20:39:40.750Z,33.75
2019-01-20T20:42:10.379Z,35.08
2019-01-20T20:44:41.401Z,34.75
2019-01-20T20:47:11.831Z,35.60
2019-01-20T20:49:41.966Z,36.30
2019-01-20T20:52:17.542Z,33.97
2019-01-20T20:54:47.950Z,34.85
2019-01-20T20:57:17.591Z,37.42
2019-01-20T20:59:47.271Z,34.95
2019-01-20T21:02:16.877Z,36.48
2019-01-20T21:04:46.389Z,35.53
2019-01-20T21:07:15.958Z,36.93
2019-01-20T21:09:45.447Z,37.90
2019-01-20T21:12:17.985Z,35.92
2019-01-20T21:14:46.806Z,36.30
2019-01-20T21:17:17.828Z,35.43
2019-01-20T21:19:47.203Z,37.38
2019-01-20T21:22:16.575Z,35.90
2019-01-20T21:24:47.772Z,36.25
2019-01-20T21:27:18.958Z,34.43
2019-01-20T21:29:48.669Z,36.30
2019-01-20T21:32:18.146Z,36.77
2019-01-20T21:34:47.729Z,37.38
2019-01-20T21:37:17.336Z,58.35
2019-01-20T21:39:46.971Z,67.80
2019-01-20T21:42:16.600Z,125.60
2019-01-20T21:44:45.956Z,44.75
2019-01-20T21:47:15.389Z,34.70
2019-01-20T21:49:44.744Z,34.53
2019-01-20T21:52:14.961Z,34.25
2019-01-20T21:54:44.588Z,35.40
2019-01-20T21:57:14.237Z,33.45
2019-01-20T21:59:44.824Z,32.48
2019-01-20T22:02:15.124Z,32.53
2019-01-20T22:04:46.181Z,34.35
2019-01-20T22:07:15.787Z,33.88
2019-01-20T22:09:46.424Z,31.33
2019-01-20T22:12:18.698Z,33.08
2019-01-20T22:14:49.404Z,32.93
2019-01-20T22:17:18.719Z,32.85
2019-01-20T22:19:48.113Z,32.28
2019-01-20T22:22:17.554Z,32.23
2019-01-20T22:24:47.411Z,36.53
2019-01-20T22:27:16.813Z,34.00
2019-01-20T22:29:46.914Z,35.15
2019-01-20T22:32:16.766Z,32.48
2019-01-20T22:34:46.467Z,32.53
2019-01-20T22:37:24.585Z,33.40
2019-01-20T22:39:54.267Z,32.08
2019-01-20T22:42:26.297Z,31.85
2019-01-20T22:44:57.543Z,30.75
2019-01-20T22:47:27.289Z,31.48
2019-01-20T22:49:59.252Z,30.50
2019-01-20T22:52:30.293Z,28.57
2019-01-20T22:55:00.859Z,30.15
2019-01-20T22:57:30.185Z,31.05
2019-01-20T22:59:59.767Z,31.73
2019-01-20T23:02:30.813Z,29.35
2019-01-20T23:05:00.648Z,30.10
2019-01-20T23:07:31.295Z,29.50
2019-01-20T23:10:01.240Z,29.40
2019-01-20T23:12:31.138Z,30.02
2019-01-20T23:15:00.572Z,31.10
2019-01-20T23:17:31.258Z,31.87
2019-01-20T23:20:01.970Z,31.68
2019-01-20T23:22:33.753Z,30.75
2019-01-20T23:25:03.574Z,31.45
2019-01-20T23:27:32.958Z,32.67
2019-01-20T23:30:02.262Z,30.70
2019-01-20T23:32:31.885Z,31.70
2019-01-20T23:35:02.375Z,30.95
2019-01-20T23:37:31.721Z,30.72
2019-01-20T23:40:02.725Z,28.83
2019-01-20T23:42:33.061Z,28.42
2019-01-20T23:45:02.675Z,30.70
2019-01-20T23:47:34.526Z,30.25
2019-01-20T23:50:07.398Z,29.90
2019-01-20T23:52:36.767Z,29.05
2019-01-20T23:55:08.436Z,28.75
2019-01-20T23:57:37.789Z,28.65
